createdAt,value
2023-03-16T00:00:00.390Z,11.68
2023-03-16T00:00:14.991Z,10.23
2023-03-16T00:00:29.874Z,10.98
2023-03-16T00:00:43.660Z,10.32
2023-03-16T00:00:57.946Z,11.02
2023-03-16T00:01:11.906Z,11.23
2023-03-16T00:01:24.781Z,10.05
2023-03-16T00:01:37.453Z,8.85
2023-03-16T00:01:50.438Z,9.30
2023-03-16T00:02:05.574Z,9.65
2023-03-16T00:02:20.662Z,12.05
2023-03-16T00:02:34.784Z,12.02
2023-03-16T00:02:49.026Z,10.68
2023-03-16T00:03:02.116Z,11.50
2023-03-16T00:03:15.386Z,11.40
2023-03-16T00:03:28.075Z,11.77
2023-03-16T00:03:43.673Z,11.07
2023-03-16T00:03:57.463Z,9.13
2023-03-16T00:04:10.996Z,9.88
2023-03-16T00:04:23.904Z,10.45
2023-03-16T00:04:37.020Z,10.90
2023-03-16T00:04:50.019Z,10.55
2023-03-16T00:05:02.546Z,8.82
2023-03-16T00:05:15.067Z,9.05
2023-03-16T00:05:27.883Z,8.57
2023-03-16T00:05:40.575Z,9.82
2023-03-16T00:05:57.468Z,10.15
2023-03-16T00:06:09.956Z,9.43
2023-03-16T00:06:25.191Z,9.77
2023-03-16T00:06:39.078Z,11.40
2023-03-16T00:06:52.144Z,11.77
2023-03-16T00:07:07.058Z,11.50
2023-03-16T00:07:19.816Z,9.35
2023-03-16T00:07:36.377Z,8.95
2023-03-16T00:07:54.465Z,9.90
2023-03-16T00:08:10.196Z,9.07
2023-03-16T00:08:23.076Z,10.02
2023-03-16T00:08:35.454Z,10.55
2023-03-16T00:08:47.740Z,12.68
2023-03-16T00:09:01.316Z,12.93
2023-03-16T00:09:13.838Z,10.05
2023-03-16T00:09:37.181Z,8.15
2023-03-16T00:09:50.626Z,11.65
2023-03-16T00:10:03.818Z,12.93
2023-03-16T00:10:18.340Z,11.60
2023-03-16T00:10:33.369Z,10.60
2023-03-16T00:10:46.605Z,11.65
2023-03-16T00:11:00.813Z,12.32
2023-03-16T00:11:14.137Z,11.30
2023-03-16T00:11:29.180Z,10.48
2023-03-16T00:11:43.898Z,10.25
2023-03-16T00:12:01.802Z,10.23
2023-03-16T00:12:22.544Z,8.43
2023-03-16T00:12:35.877Z,14.68
2023-03-16T00:12:49.329Z,16.02
2023-03-16T00:13:01.948Z,10.60
2023-03-16T00:13:15.336Z,11.65
2023-03-16T00:13:30.363Z,14.40
2023-03-16T00:13:43.233Z,11.80
2023-03-16T00:13:56.643Z,11.02
2023-03-16T00:14:09.124Z,10.90
2023-03-16T00:14:22.605Z,10.50
2023-03-16T00:14:35.116Z,10.75
2023-03-16T00:14:52.161Z,9.07
2023-03-16T00:15:07.382Z,11.27
2023-03-16T00:15:20.976Z,11.93
2023-03-16T00:15:35.313Z,10.35
2023-03-16T00:15:50.606Z,9.80
2023-03-16T00:16:04.673Z,9.65
2023-03-16T00:16:19.231Z,12.63
2023-03-16T00:16:31.804Z,16.33
2023-03-16T00:16:46.391Z,16.48
2023-03-16T00:17:02.081Z,17.10
2023-03-16T00:17:16.683Z,13.82
2023-03-16T00:17:29.354Z,15.10
2023-03-16T00:17:42.909Z,13.93
2023-03-16T00:17:55.774Z,12.90
2023-03-16T00:18:09.020Z,13.00
2023-03-16T00:18:22.564Z,9.57
2023-03-16T00:18:37.792Z,9.65
2023-03-16T00:18:51.518Z,15.68
2023-03-16T00:19:05.021Z,23.63
2023-03-16T00:19:17.930Z,25.05
2023-03-16T00:19:35.111Z,17.42
2023-03-16T00:19:48.673Z,15.27
2023-03-16T00:20:01.215Z,11.82
2023-03-16T00:20:15.822Z,12.30
2023-03-16T00:20:28.786Z,12.05
2023-03-16T00:20:42.263Z,10.38
2023-03-16T00:20:59.599Z,10.52
2023-03-16T00:21:17.483Z,11.80
2023-03-16T00:21:34.143Z,15.43
2023-03-16T00:21:48.424Z,16.52
2023-03-16T00:22:01.068Z,14.07
2023-03-16T00:22:15.714Z,12.13
2023-03-16T00:22:30.470Z,14.27
2023-03-16T00:22:43.194Z,14.50
2023-03-16T00:22:55.943Z,12.55
2023-03-16T00:23:10.997Z,11.68
2023-03-16T00:23:25.380Z,11.35
2023-03-16T00:23:40.444Z,10.95
2023-03-16T00:23:53.827Z,9.63
2023-03-16T00:24:07.810Z,12.07
2023-03-16T00:24:20.672Z,12.15
2023-03-16T00:24:33.364Z,9.82
2023-03-16T00:24:47.127Z,11.30
2023-03-16T00:24:59.906Z,13.15
2023-03-16T00:25:13.675Z,12.90
2023-03-16T00:25:28.016Z,15.65
2023-03-16T00:25:41.068Z,15.40
2023-03-16T00:25:54.976Z,12.98
2023-03-16T00:26:09.811Z,11.18
2023-03-16T00:26:26.482Z,11.43
2023-03-16T00:26:40.813Z,13.60
2023-03-16T00:26:53.239Z,12.48
2023-03-16T00:27:06.571Z,10.02
2023-03-16T00:27:19.695Z,8.77
2023-03-16T00:27:32.286Z,9.63
2023-03-16T00:27:45.966Z,11.50
2023-03-16T00:27:58.949Z,10.85
2023-03-16T00:28:12.191Z,11.75
2023-03-16T00:28:26.476Z,12.73
2023-03-16T00:28:39.360Z,11.73
2023-03-16T00:28:52.433Z,11.23
2023-03-16T00:29:05.753Z,12.88
2023-03-16T00:29:19.477Z,11.45
2023-03-16T00:29:33.127Z,12.10
2023-03-16T00:29:51.786Z,14.45
2023-03-16T00:30:04.744Z,13.23
2023-03-16T00:30:17.122Z,12.77
2023-03-16T00:30:34.092Z,12.68
2023-03-16T00:30:47.144Z,12.10
2023-03-16T00:31:01.627Z,12.52
2023-03-16T00:31:17.879Z,12.88
2023-03-16T00:31:33.389Z,11.05
2023-03-16T00:31:46.431Z,10.32
2023-03-16T00:32:02.570Z,10.85
2023-03-16T00:32:16.445Z,11.30
2023-03-16T00:32:30.689Z,12.63
2023-03-16T00:32:43.206Z,13.40
2023-03-16T00:32:56.357Z,13.40
2023-03-16T00:33:08.607Z,14.45
2023-03-16T00:33:23.659Z,12.88
2023-03-16T00:33:38.557Z,11.25
2023-03-16T00:33:51.641Z,10.00
2023-03-16T00:34:06.814Z,11.35
2023-03-16T00:34:20.921Z,14.80
2023-03-16T00:34:33.719Z,13.60
2023-03-16T00:34:50.023Z,9.70
2023-03-16T00:35:02.368Z,11.70
2023-03-16T00:35:15.340Z,11.65
2023-03-16T00:35:29.785Z,10.52
2023-03-16T00:35:48.408Z,13.48
2023-03-16T00:36:04.500Z,17.15
2023-03-16T00:36:17.800Z,14.95
2023-03-16T00:36:31.802Z,14.02
2023-03-16T00:36:46.648Z,14.77
2023-03-16T00:37:02.648Z,16.80
2023-03-16T00:37:21.869Z,16.30
2023-03-16T00:37:36.904Z,14.82
2023-03-16T00:37:51.702Z,16.27
2023-03-16T00:38:04.401Z,14.82
2023-03-16T00:38:17.782Z,12.57
2023-03-16T00:38:33.799Z,12.85
2023-03-16T00:38:48.528Z,12.25
2023-03-16T00:39:03.001Z,11.60
2023-03-16T00:39:15.983Z,9.73
2023-03-16T00:39:28.246Z,11.45
2023-03-16T00:39:42.623Z,12.27
2023-03-16T00:39:58.778Z,11.30
2023-03-16T00:40:11.821Z,10.75
2023-03-16T00:40:23.995Z,12.75
2023-03-16T00:40:36.963Z,12.82
2023-03-16T00:40:50.742Z,14.27
2023-03-16T00:41:04.869Z,13.80
2023-03-16T00:41:17.555Z,13.20
2023-03-16T00:41:32.612Z,11.93
2023-03-16T00:41:53.094Z,11.77
2023-03-16T00:42:08.513Z,12.63
2023-03-16T00:42:24.554Z,11.38
2023-03-16T00:42:37.275Z,13.13
2023-03-16T00:42:49.413Z,15.15
2023-03-16T00:43:09.326Z,11.95
2023-03-16T00:43:23.821Z,11.23
2023-03-16T00:43:38.641Z,11.73
2023-03-16T00:43:52.644Z,10.70
2023-03-16T00:44:05.057Z,10.43
2023-03-16T00:44:17.994Z,12.40
2023-03-16T00:44:30.917Z,11.38
2023-03-16T00:44:44.053Z,9.45
2023-03-16T00:44:58.200Z,12.30
2023-03-16T00:45:13.945Z,14.82
2023-03-16T00:45:26.465Z,13.68
2023-03-16T00:45:38.877Z,11.45
2023-03-16T00:45:59.917Z,12.30
2023-03-16T00:46:16.453Z,12.55
2023-03-16T00:46:29.602Z,12.48
2023-03-16T00:46:44.726Z,12.13
2023-03-16T00:46:59.291Z,11.85
2023-03-16T00:47:13.178Z,11.95
2023-03-16T00:47:30.918Z,10.48
2023-03-16T00:47:43.737Z,10.63
2023-03-16T00:48:00.542Z,11.43
2023-03-16T00:48:13.022Z,10.50
2023-03-16T00:48:25.541Z,9.32
2023-03-16T00:48:40.449Z,10.80
2023-03-16T00:48:53.173Z,13.23
2023-03-16T00:49:05.888Z,11.95
2023-03-16T00:49:21.221Z,15.10
2023-03-16T00:49:33.822Z,14.63
2023-03-16T00:49:47.053Z,11.32
2023-03-16T00:50:01.219Z,10.90
2023-03-16T00:50:15.874Z,11.35
2023-03-16T00:50:31.817Z,10.75
2023-03-16T00:50:44.227Z,9.75
2023-03-16T00:50:58.684Z,9.38
2023-03-16T00:51:15.176Z,11.70
2023-03-16T00:51:27.305Z,12.27
2023-03-16T00:51:43.667Z,11.57
2023-03-16T00:52:02.727Z,12.20
2023-03-16T00:52:15.520Z,12.07
2023-03-16T00:52:31.820Z,11.98
2023-03-16T00:52:45.816Z,11.77
2023-03-16T00:53:00.193Z,11.65
2023-03-16T00:53:13.742Z,12.40
2023-03-16T00:53:25.675Z,12.07
2023-03-16T00:53:41.798Z,13.27
2023-03-16T00:53:55.435Z,14.07
2023-03-16T00:54:08.578Z,13.57
2023-03-16T00:54:21.137Z,16.58
2023-03-16T00:54:33.897Z,15.73
2023-03-16T00:54:47.724Z,11.80
2023-03-16T00:55:01.512Z,15.65
2023-03-16T00:55:14.294Z,15.95
2023-03-16T00:55:28.646Z,12.88
2023-03-16T00:55:41.786Z,13.85
2023-03-16T00:55:56.284Z,15.05
2023-03-16T00:56:10.530Z,13.90
2023-03-16T00:56:24.868Z,11.84
2023-03-16T00:56:39.413Z,14.27
2023-03-16T00:56:51.716Z,14.52
2023-03-16T00:57:11.439Z,11.85
2023-03-16T00:57:27.647Z,10.55
2023-03-16T00:57:42.644Z,12.90
2023-03-16T00:57:57.535Z,12.70
2023-03-16T00:58:10.596Z,10.23
2023-03-16T00:58:23.670Z,10.45
2023-03-16T00:58:39.180Z,10.85
2023-03-16T00:58:54.675Z,9.65
2023-03-16T00:59:07.079Z,10.55
2023-03-16T00:59:21.287Z,12.50
2023-03-16T00:59:35.119Z,13.93
2023-03-16T00:59:47.678Z,13.13
2023-03-16T01:00:00.668Z,12.25
2023-03-16T01:00:14.668Z,12.18
2023-03-16T01:00:31.915Z,13.43
2023-03-16T01:00:47.071Z,13.85
2023-03-16T01:01:00.240Z,14.43
2023-03-16T01:01:15.579Z,13.50
2023-03-16T01:01:31.070Z,18.15
2023-03-16T01:01:43.846Z,19.00
2023-03-16T01:01:57.000Z,14.25
2023-03-16T01:02:12.183Z,14.52
2023-03-16T01:02:25.432Z,15.05
2023-03-16T01:02:40.715Z,13.05
2023-03-16T01:02:54.837Z,12.48
2023-03-16T01:03:07.553Z,12.13
2023-03-16T01:03:20.822Z,11.07
2023-03-16T01:03:35.347Z,11.15
2023-03-16T01:03:49.772Z,12.57
2023-03-16T01:04:02.524Z,13.30
2023-03-16T01:04:15.008Z,13.02
2023-03-16T01:04:27.152Z,12.85
2023-03-16T01:04:40.961Z,13.10
2023-03-16T01:04:55.471Z,13.10
2023-03-16T01:05:09.492Z,11.88
2023-03-16T01:05:23.866Z,12.13
2023-03-16T01:05:40.904Z,14.35
2023-03-16T01:05:53.958Z,16.85
2023-03-16T01:06:07.836Z,17.52
2023-03-16T01:06:23.824Z,14.98
2023-03-16T01:06:40.103Z,12.05
2023-03-16T01:06:53.971Z,12.07
2023-03-16T01:07:07.747Z,13.93
2023-03-16T01:07:22.802Z,14.18
2023-03-16T01:07:36.118Z,9.90
2023-03-16T01:07:50.407Z,11.43
2023-03-16T01:08:02.904Z,12.70
2023-03-16T01:08:16.746Z,14.32
2023-03-16T01:08:30.919Z,15.02
2023-03-16T01:08:44.417Z,14.32
2023-03-16T01:08:58.027Z,13.55
2023-03-16T01:09:10.052Z,11.18
2023-03-16T01:09:22.413Z,13.27
2023-03-16T01:09:40.912Z,13.70
2023-03-16T01:09:58.689Z,15.23
2023-03-16T01:10:13.966Z,15.25
2023-03-16T01:10:27.520Z,10.95
2023-03-16T01:10:45.717Z,10.38
2023-03-16T01:11:02.565Z,12.30
2023-03-16T01:11:18.693Z,10.32
2023-03-16T01:11:33.213Z,16.14
2023-03-16T01:11:47.657Z,22.10
2023-03-16T01:12:01.222Z,19.52
2023-03-16T01:12:16.481Z,18.88
2023-03-16T01:12:31.097Z,15.60
2023-03-16T01:12:45.329Z,14.10
2023-03-16T01:13:01.315Z,16.38
2023-03-16T01:13:16.890Z,14.93
2023-03-16T01:13:30.782Z,11.20
2023-03-16T01:13:43.692Z,11.40
2023-03-16T01:13:56.840Z,11.73
2023-03-16T01:14:09.784Z,12.60
2023-03-16T01:14:22.318Z,12.23
2023-03-16T01:14:35.534Z,12.90
2023-03-16T01:14:49.571Z,12.68
2023-03-16T01:15:01.958Z,15.07
2023-03-16T01:15:14.720Z,16.44
2023-03-16T01:15:27.333Z,15.27
2023-03-16T01:15:42.788Z,12.73
2023-03-16T01:15:59.012Z,12.48
2023-03-16T01:16:11.659Z,11.63
2023-03-16T01:16:23.674Z,12.06
2023-03-16T01:16:35.930Z,14.77
2023-03-16T01:16:50.982Z,13.38
2023-03-16T01:17:11.032Z,11.70
2023-03-16T01:17:28.460Z,12.80
2023-03-16T01:17:42.244Z,14.05
2023-03-16T01:17:55.703Z,12.32
2023-03-16T01:18:08.310Z,10.73
2023-03-16T01:18:22.979Z,15.32
2023-03-16T01:18:39.183Z,16.30
2023-03-16T01:18:52.832Z,12.35
2023-03-16T01:19:05.784Z,13.23
2023-03-16T01:19:18.721Z,12.18
2023-03-16T01:19:31.744Z,12.38
2023-03-16T01:19:47.448Z,12.60
2023-03-16T01:20:00.017Z,11.98
2023-03-16T01:20:12.931Z,12.02
2023-03-16T01:20:32.357Z,12.43
2023-03-16T01:20:47.665Z,18.27
2023-03-16T01:21:03.393Z,17.75
2023-03-16T01:21:18.808Z,12.95
2023-03-16T01:21:34.852Z,12.13
2023-03-16T01:21:48.707Z,11.50
2023-03-16T01:22:09.294Z,12.35
2023-03-16T01:22:21.972Z,15.63
2023-03-16T01:22:37.433Z,12.93
2023-03-16T01:22:51.118Z,9.98
2023-03-16T01:23:04.128Z,12.23
2023-03-16T01:23:17.924Z,12.98
2023-03-16T01:23:31.437Z,12.52
2023-03-16T01:23:44.016Z,11.02
2023-03-16T01:23:58.006Z,12.43
2023-03-16T01:24:12.515Z,15.80
2023-03-16T01:24:26.570Z,14.80
2023-03-16T01:24:40.574Z,11.10
2023-03-16T01:24:56.806Z,9.68
2023-03-16T01:25:12.112Z,11.85
2023-03-16T01:25:28.316Z,12.27
2023-03-16T01:25:44.016Z,11.27
2023-03-16T01:25:56.738Z,16.80
2023-03-16T01:26:08.790Z,15.57
2023-03-16T01:26:24.133Z,13.98
2023-03-16T01:26:37.430Z,11.90
2023-03-16T01:26:52.104Z,11.32
2023-03-16T01:27:07.346Z,12.14
2023-03-16T01:27:23.008Z,13.18
2023-03-16T01:27:40.105Z,12.57
2023-03-16T01:27:53.914Z,13.95
2023-03-16T01:28:07.779Z,13.13
2023-03-16T01:28:22.756Z,12.20
2023-03-16T01:28:37.464Z,12.90
2023-03-16T01:28:49.632Z,14.57
2023-03-16T01:29:05.908Z,13.77
2023-03-16T01:29:47.224Z,11.70
2023-03-16T01:30:01.517Z,12.73
2023-03-16T01:30:18.848Z,12.98
2023-03-16T01:30:31.868Z,14.20
2023-03-16T01:30:50.918Z,13.02
2023-03-16T01:31:07.688Z,11.43
2023-03-16T01:31:52.485Z,11.45
2023-03-16T01:32:05.132Z,11.70
2023-03-16T01:32:20.097Z,11.35
2023-03-16T01:32:33.390Z,11.32
2023-03-16T01:32:47.128Z,11.48
2023-03-16T01:33:02.191Z,11.85
2023-03-16T01:33:15.148Z,14.27
2023-03-16T01:33:30.063Z,14.10
2023-03-16T01:33:48.130Z,13.30
2023-03-16T01:34:12.124Z,15.40
2023-03-16T01:34:24.932Z,11.05
2023-03-16T01:34:40.033Z,10.43
2023-03-16T01:34:57.287Z,10.65
2023-03-16T01:35:13.518Z,12.07
2023-03-16T01:35:25.698Z,10.20
2023-03-16T01:35:40.466Z,10.43
2023-03-16T01:35:54.487Z,11.32
2023-03-16T01:36:09.424Z,11.07
2023-03-16T01:36:37.446Z,11.98
2023-03-16T01:36:56.111Z,14.15
2023-03-16T01:37:15.612Z,15.98
2023-03-16T01:37:55.682Z,11.20
2023-03-16T01:38:12.845Z,11.30
2023-03-16T01:38:26.739Z,11.85
2023-03-16T01:38:38.891Z,10.45
2023-03-16T01:38:52.370Z,9.43
2023-03-16T01:39:05.567Z,9.80
2023-03-16T01:39:25.458Z,13.40
2023-03-16T01:39:38.010Z,14.35
2023-03-16T01:39:53.107Z,11.00
2023-03-16T01:40:10.277Z,11.32
2023-03-16T01:40:23.876Z,11.50
2023-03-16T01:40:36.308Z,10.85
2023-03-16T01:40:48.402Z,10.45
2023-03-16T01:41:01.822Z,11.65
2023-03-16T01:41:14.846Z,11.65
2023-03-16T01:41:28.799Z,9.50
2023-03-16T01:41:41.866Z,9.75
2023-03-16T01:41:54.205Z,10.23
2023-03-16T01:42:07.191Z,11.00
2023-03-16T01:42:19.629Z,12.32
2023-03-16T01:42:32.437Z,12.75
2023-03-16T01:43:01.389Z,11.57
2023-03-16T01:43:15.738Z,12.70
2023-03-16T01:43:30.693Z,12.45
2023-03-16T01:43:44.957Z,11.90
2023-03-16T01:43:59.318Z,13.75
2023-03-16T01:44:16.008Z,12.10
2023-03-16T01:44:28.943Z,11.02
2023-03-16T01:44:52.024Z,11.18
2023-03-16T01:45:10.143Z,11.25
2023-03-16T01:46:03.700Z,14.07
2023-03-16T01:46:22.763Z,8.32
2023-03-16T01:46:39.450Z,9.90
2023-03-16T01:46:53.029Z,10.15
2023-03-16T01:47:08.153Z,9.63
2023-03-16T01:47:20.646Z,10.05
2023-03-16T01:47:33.838Z,8.98
2023-03-16T01:47:46.480Z,11.35
2023-03-16T01:48:01.748Z,10.73
2023-03-16T01:48:19.567Z,9.00
2023-03-16T01:48:35.852Z,9.82
2023-03-16T01:48:57.576Z,10.93
2023-03-16T01:49:16.725Z,9.48
2023-03-16T01:49:33.595Z,12.00
2023-03-16T01:49:53.170Z,10.32
2023-03-16T01:50:08.115Z,10.07
2023-03-16T01:50:26.058Z,12.30
2023-03-16T01:50:43.373Z,13.23
2023-03-16T01:50:57.613Z,11.40
2023-03-16T01:51:14.920Z,9.25
2023-03-16T01:51:35.294Z,9.63
2023-03-16T01:51:51.500Z,10.10
2023-03-16T01:52:10.456Z,11.13
2023-03-16T01:52:28.573Z,14.43
2023-03-16T01:52:41.023Z,15.13
2023-03-16T01:52:54.521Z,12.00
2023-03-16T01:53:07.204Z,14.18
2023-03-16T01:53:23.578Z,13.13
2023-03-16T01:53:37.908Z,11.55
2023-03-16T01:53:53.064Z,11.98
2023-03-16T01:54:14.380Z,11.35
2023-03-16T01:54:32.307Z,10.93
2023-03-16T01:54:48.912Z,11.45
2023-03-16T01:55:04.815Z,10.65
2023-03-16T01:55:19.711Z,10.80
2023-03-16T01:55:37.602Z,13.52
2023-03-16T01:55:51.763Z,12.02
2023-03-16T01:56:07.325Z,10.93
2023-03-16T01:56:24.669Z,11.88
2023-03-16T01:56:40.942Z,12.30
2023-03-16T01:56:59.868Z,13.52
2023-03-16T01:57:17.705Z,10.93
2023-03-16T01:57:43.398Z,8.43
2023-03-16T01:57:57.923Z,13.93
2023-03-16T01:58:11.043Z,13.38
2023-03-16T01:58:27.943Z,11.13
2023-03-16T01:58:45.137Z,9.63
2023-03-16T01:59:01.146Z,9.48
2023-03-16T01:59:18.328Z,10.38
2023-03-16T01:59:34.817Z,15.23
2023-03-16T01:59:51.976Z,13.52
2023-03-16T02:00:16.664Z,16.45
2023-03-16T02:00:37.797Z,12.27
2023-03-16T02:01:04.627Z,13.30
2023-03-16T02:01:19.989Z,11.55
2023-03-16T02:01:35.644Z,12.50
2023-03-16T02:01:51.072Z,10.38
2023-03-16T02:02:06.259Z,10.13
2023-03-16T02:02:21.093Z,13.55
2023-03-16T02:02:36.547Z,13.70
2023-03-16T02:02:55.043Z,11.43
2023-03-16T02:03:19.792Z,11.50
2023-03-16T02:03:47.226Z,11.77
2023-03-16T02:04:24.199Z,9.73
2023-03-16T02:04:50.466Z,11.60
2023-03-16T02:05:10.341Z,13.85
2023-03-16T02:05:28.419Z,11.80
2023-03-16T02:05:46.399Z,13.65
2023-03-16T02:06:06.689Z,12.40
2023-03-16T02:06:21.321Z,15.07
2023-03-16T02:06:39.572Z,15.13
2023-03-16T02:06:55.866Z,11.75
2023-03-16T02:07:16.123Z,11.00
2023-03-16T02:07:32.207Z,8.35
2023-03-16T02:07:48.133Z,10.75
2023-03-16T02:08:02.776Z,14.25
2023-03-16T02:08:19.583Z,11.50
2023-03-16T02:08:36.953Z,11.70
2023-03-16T02:08:54.939Z,11.05
2023-03-16T02:09:15.101Z,9.55
2023-03-16T02:09:27.978Z,11.18
2023-03-16T02:09:45.281Z,11.38
2023-03-16T02:10:01.412Z,10.57
2023-03-16T02:10:19.520Z,15.13
2023-03-16T02:10:33.809Z,14.38
2023-03-16T02:10:46.695Z,12.25
2023-03-16T02:11:02.388Z,10.65
2023-03-16T02:11:26.971Z,10.52
2023-03-16T02:11:50.646Z,12.18
2023-03-16T02:12:09.188Z,11.32
2023-03-16T02:12:27.065Z,11.77
2023-03-16T02:12:43.377Z,12.57
2023-03-16T02:12:55.737Z,10.88
2023-03-16T02:13:08.918Z,9.77
2023-03-16T02:13:26.805Z,9.32
2023-03-16T02:13:40.450Z,10.73
2023-03-16T02:13:53.187Z,10.13
2023-03-16T02:14:10.712Z,10.35
2023-03-16T02:14:25.384Z,9.85
2023-03-16T02:14:39.011Z,9.52
2023-03-16T02:14:52.423Z,10.96
2023-03-16T02:15:05.834Z,12.70
2023-03-16T02:15:20.156Z,14.00
2023-03-16T02:15:38.144Z,14.93
2023-03-16T02:15:54.807Z,13.93
2023-03-16T02:16:10.365Z,12.48
2023-03-16T02:16:23.889Z,10.35
2023-03-16T02:16:40.112Z,12.82
2023-03-16T02:16:56.400Z,13.30
2023-03-16T02:17:09.050Z,11.13
2023-03-16T02:17:24.045Z,11.02
2023-03-16T02:17:42.027Z,11.40
2023-03-16T02:17:59.666Z,13.93
2023-03-16T02:18:14.585Z,16.85
2023-03-16T02:18:28.690Z,16.73
2023-03-16T02:18:41.588Z,13.60
2023-03-16T02:18:55.132Z,13.36
2023-03-16T02:19:13.310Z,15.52
2023-03-16T02:19:39.776Z,14.20
2023-03-16T02:20:06.534Z,13.70
2023-03-16T02:20:35.049Z,14.88
2023-03-16T02:20:56.577Z,13.77
2023-03-16T02:21:19.405Z,11.32
2023-03-16T02:21:39.679Z,13.10
2023-03-16T02:22:02.823Z,12.75
2023-03-16T02:22:24.091Z,11.15
2023-03-16T02:22:45.259Z,15.60
2023-03-16T02:23:01.289Z,16.15
2023-03-16T02:23:18.785Z,12.82
2023-03-16T02:23:35.822Z,11.00
2023-03-16T02:23:51.582Z,10.93
2023-03-16T02:24:05.871Z,14.85
2023-03-16T02:24:19.680Z,16.45
2023-03-16T02:24:32.927Z,11.05
2023-03-16T02:24:45.744Z,11.20
2023-03-16T02:25:06.732Z,12.15
2023-03-16T02:25:21.141Z,11.88
2023-03-16T02:25:43.652Z,13.60
2023-03-16T02:26:07.126Z,15.45
2023-03-16T02:26:37.379Z,13.55
2023-03-16T02:26:57.551Z,12.38
2023-03-16T02:27:24.318Z,14.07
2023-03-16T02:27:43.624Z,12.10
2023-03-16T02:28:07.290Z,13.23
2023-03-16T02:28:31.414Z,12.20
2023-03-16T02:28:51.795Z,12.00
2023-03-16T02:29:19.249Z,12.73
2023-03-16T02:30:09.476Z,15.15
2023-03-16T02:30:28.790Z,12.57
2023-03-16T02:30:46.063Z,12.63
2023-03-16T02:30:59.047Z,16.73
2023-03-16T02:31:15.455Z,16.66
2023-03-16T02:31:28.584Z,13.10
2023-03-16T02:31:40.927Z,11.60
2023-03-16T02:31:54.742Z,11.60
2023-03-16T02:32:07.456Z,12.77
2023-03-16T02:32:22.490Z,14.38
2023-03-16T02:32:39.636Z,15.75
2023-03-16T02:32:53.006Z,13.23
2023-03-16T02:33:07.444Z,12.68
2023-03-16T02:33:22.662Z,14.68
2023-03-16T02:33:36.546Z,14.77
2023-03-16T02:33:53.534Z,12.93
2023-03-16T02:34:07.119Z,9.30
2023-03-16T02:34:19.650Z,10.55
2023-03-16T02:34:32.457Z,11.77
2023-03-16T02:34:46.326Z,12.30
2023-03-16T02:35:00.606Z,12.68
2023-03-16T02:35:14.115Z,12.50
2023-03-16T02:35:27.351Z,13.23
2023-03-16T02:35:40.196Z,12.63
2023-03-16T02:35:52.522Z,13.82
2023-03-16T02:36:05.868Z,12.88
2023-03-16T02:36:22.450Z,11.82
2023-03-16T02:36:39.051Z,14.40
2023-03-16T02:36:53.670Z,17.13
2023-03-16T02:37:19.634Z,14.55
2023-03-16T02:37:32.955Z,13.95
2023-03-16T02:37:48.443Z,12.50
2023-03-16T02:38:01.653Z,12.65
2023-03-16T02:38:18.420Z,11.55
2023-03-16T02:38:35.472Z,11.98
2023-03-16T02:38:48.147Z,11.40
2023-03-16T02:39:03.195Z,10.52
2023-03-16T02:39:23.677Z,12.73
2023-03-16T02:39:36.189Z,14.15
2023-03-16T02:39:49.700Z,13.27
2023-03-16T02:40:17.881Z,13.02
2023-03-16T02:40:33.922Z,13.15
2023-03-16T02:41:00.268Z,11.62
2023-03-16T02:41:15.928Z,12.23
2023-03-16T02:41:29.060Z,12.30
2023-03-16T02:41:44.856Z,12.10
2023-03-16T02:41:58.172Z,14.23
2023-03-16T02:42:14.925Z,14.77
2023-03-16T02:42:30.891Z,10.90
2023-03-16T02:42:48.896Z,13.00
2023-03-16T02:43:04.652Z,13.55
2023-03-16T02:43:25.046Z,12.18
2023-03-16T02:43:56.915Z,13.95
2023-03-16T02:44:17.985Z,11.13
2023-03-16T02:44:33.899Z,10.88
2023-03-16T02:44:54.829Z,15.02
2023-03-16T02:45:13.893Z,12.32
2023-03-16T02:45:32.553Z,12.27
2023-03-16T02:45:50.068Z,11.52
2023-03-16T02:46:07.650Z,11.70
2023-03-16T02:46:28.757Z,12.23
2023-03-16T02:46:42.834Z,13.25
2023-03-16T02:47:00.933Z,14.43
2023-03-16T02:47:20.617Z,15.10
2023-03-16T02:47:43.166Z,18.77
2023-03-16T02:47:58.480Z,16.73
2023-03-16T02:48:15.110Z,14.98
2023-03-16T02:48:34.854Z,16.15
2023-03-16T02:48:52.125Z,13.00
2023-03-16T02:49:10.905Z,12.23
2023-03-16T02:49:28.211Z,13.45
2023-03-16T02:49:45.351Z,16.20
2023-03-16T02:49:58.773Z,18.85
2023-03-16T02:50:13.137Z,18.10
2023-03-16T02:50:27.595Z,17.70
2023-03-16T02:50:45.426Z,17.00
2023-03-16T02:50:59.128Z,12.90
2023-03-16T02:51:16.537Z,14.48
2023-03-16T02:51:36.505Z,16.25
2023-03-16T02:51:52.541Z,11.73
2023-03-16T02:52:08.290Z,10.20
2023-03-16T02:52:23.871Z,11.52
2023-03-16T02:52:39.962Z,12.95
2023-03-16T02:52:52.601Z,13.50
2023-03-16T02:53:06.649Z,15.55
2023-03-16T02:53:19.972Z,15.63
2023-03-16T02:53:35.450Z,13.65
2023-03-16T02:53:48.665Z,12.48
2023-03-16T02:54:01.640Z,11.82
2023-03-16T02:54:17.782Z,13.90
2023-03-16T02:54:30.179Z,14.65
2023-03-16T02:54:42.345Z,12.80
2023-03-16T02:54:58.228Z,12.98
2023-03-16T02:55:10.533Z,13.13
2023-03-16T02:55:24.649Z,14.05
2023-03-16T02:55:37.897Z,18.42
2023-03-16T02:55:51.028Z,17.40
2023-03-16T02:56:04.544Z,14.30
2023-03-16T02:56:23.343Z,12.57
2023-03-16T02:56:36.281Z,12.27
2023-03-16T02:56:49.350Z,15.02
2023-03-16T02:57:03.386Z,16.10
2023-03-16T02:57:19.831Z,15.77
2023-03-16T02:57:34.057Z,13.07
2023-03-16T02:57:54.242Z,13.50
2023-03-16T02:58:07.006Z,15.88
2023-03-16T02:58:22.817Z,15.25
2023-03-16T02:58:35.589Z,15.48
2023-03-16T02:58:51.812Z,14.73
2023-03-16T02:59:07.934Z,14.73
2023-03-16T02:59:20.139Z,16.48
2023-03-16T02:59:34.386Z,18.15
2023-03-16T02:59:48.383Z,17.17
2023-03-16T03:00:03.076Z,14.95
2023-03-16T03:00:19.621Z,15.32
2023-03-16T03:00:38.857Z,17.13
2023-03-16T03:00:52.998Z,16.13
2023-03-16T03:01:06.150Z,15.95
2023-03-16T03:01:20.400Z,19.40
2023-03-16T03:01:33.059Z,16.42
2023-03-16T03:01:48.798Z,11.23
2023-03-16T03:02:03.718Z,14.60
2023-03-16T03:02:16.005Z,15.77
2023-03-16T03:02:30.659Z,15.32
2023-03-16T03:02:43.884Z,15.45
2023-03-16T03:03:01.817Z,16.73
2023-03-16T03:03:16.724Z,18.05
2023-03-16T03:03:30.174Z,14.68
2023-03-16T03:03:43.814Z,13.72
2023-03-16T03:03:56.019Z,14.40
2023-03-16T03:04:09.482Z,14.50
2023-03-16T03:04:22.327Z,14.02
2023-03-16T03:04:35.250Z,11.82
2023-03-16T03:04:47.817Z,13.02
2023-03-16T03:05:03.152Z,14.00
2023-03-16T03:05:15.489Z,11.98
2023-03-16T03:05:32.870Z,10.98
2023-03-16T03:05:48.256Z,12.98
2023-03-16T03:06:00.412Z,14.75
2023-03-16T03:06:14.614Z,15.32
2023-03-16T03:06:27.328Z,15.10
2023-03-16T03:06:43.866Z,13.20
2023-03-16T03:06:55.958Z,14.85
2023-03-16T03:07:11.900Z,15.27
2023-03-16T03:07:40.850Z,11.32
2023-03-16T03:07:53.588Z,13.63
2023-03-16T03:08:06.191Z,15.82
2023-03-16T03:08:19.043Z,15.55
2023-03-16T03:08:36.795Z,14.07
2023-03-16T03:08:51.610Z,11.52
2023-03-16T03:09:04.939Z,11.90
2023-03-16T03:09:24.630Z,14.68
2023-03-16T03:09:41.226Z,16.20
2023-03-16T03:09:54.606Z,13.43
2023-03-16T03:10:09.644Z,13.23
2023-03-16T03:10:23.103Z,12.23
2023-03-16T03:10:36.136Z,11.43
2023-03-16T03:10:49.844Z,11.88
2023-03-16T03:11:05.114Z,14.23
2023-03-16T03:11:19.412Z,15.02
2023-03-16T03:11:33.214Z,14.05
2023-03-16T03:11:45.585Z,13.30
2023-03-16T03:12:00.428Z,14.93
2023-03-16T03:12:20.172Z,16.55
2023-03-16T03:12:35.756Z,16.42
2023-03-16T03:12:58.417Z,16.17
2023-03-16T03:13:10.797Z,14.48
2023-03-16T03:13:23.934Z,13.55
2023-03-16T03:13:36.711Z,13.15
2023-03-16T03:13:51.165Z,12.35
2023-03-16T03:14:10.927Z,13.02
2023-03-16T03:14:25.892Z,12.88
2023-03-16T03:14:39.020Z,12.00
2023-03-16T03:14:52.101Z,11.45
2023-03-16T03:15:08.584Z,15.18
2023-03-16T03:15:32.005Z,14.65
2023-03-16T03:15:50.443Z,12.40
2023-03-16T03:16:04.423Z,12.43
2023-03-16T03:16:19.494Z,13.63
2023-03-16T03:16:35.060Z,16.92
2023-03-16T03:16:48.707Z,17.27
2023-03-16T03:17:02.031Z,14.73
2023-03-16T03:17:14.840Z,13.70
2023-03-16T03:17:27.538Z,15.38
2023-03-16T03:17:52.115Z,15.48
2023-03-16T03:18:09.913Z,14.13
2023-03-16T03:18:22.818Z,15.50
2023-03-16T03:18:37.348Z,12.82
2023-03-16T03:18:54.454Z,12.35
2023-03-16T03:19:06.943Z,12.77
2023-03-16T03:19:23.688Z,13.02
2023-03-16T03:19:39.887Z,13.95
2023-03-16T03:19:52.028Z,13.57
2023-03-16T03:20:06.319Z,14.55
2023-03-16T03:20:19.025Z,14.48
2023-03-16T03:20:34.398Z,15.20